createdAt,value
2023-01-02T00:05:18.055Z,41.80
2023-01-02T00:10:38.358Z,41.80
2023-01-02T00:15:58.547Z,41.80
2023-01-02T00:21:18.657Z,41.70
2023-01-02T00:26:38.993Z,41.70
2023-01-02T00:31:59.061Z,41.80
2023-01-02T00:37:19.144Z,41.80
2023-01-02T00:42:39.376Z,41.80
2023-01-02T00:47:59.646Z,41.70
2023-01-02T00:53:19.669Z,41.70
2023-01-02T00:58:39.865Z,41.70
2023-01-02T01:03:59.898Z,41.70
2023-01-02T01:09:20.040Z,41.70
2023-01-02T01:14:40.120Z,41.70
2023-01-02T01:20:00.212Z,41.70
2023-01-02T01:25:20.242Z,41.70
2023-01-02T01:30:40.434Z,41.80
2023-01-02T01:36:00.388Z,41.70
2023-01-02T01:41:20.555Z,41.70
2023-01-02T01:46:40.734Z,41.70
2023-01-02T01:52:00.899Z,41.70
2023-01-02T01:57:21.046Z,41.70
2023-01-02T02:02:41.417Z,41.80
2023-01-02T02:08:01.327Z,41.70
2023-01-02T02:13:21.690Z,41.80
2023-01-02T02:18:41.743Z,41.80
2023-01-02T02:24:01.997Z,41.70
2023-01-02T02:29:22.038Z,41.70
2023-01-02T02:34:42.346Z,41.70
2023-01-02T02:40:02.380Z,41.70
2023-01-02T02:45:22.567Z,41.70
2023-01-02T02:50:42.692Z,41.80
2023-01-02T02:56:02.899Z,41.70
2023-01-02T03:01:28.330Z,41.70
2023-01-02T03:06:50.251Z,41.70
2023-01-02T03:12:10.345Z,41.70
2023-01-02T03:17:30.473Z,41.70
2023-01-02T03:22:50.586Z,41.70
2023-01-02T03:28:10.664Z,41.80
2023-01-02T03:33:30.930Z,41.80
2023-01-02T03:38:51.022Z,41.80
2023-01-02T03:44:11.167Z,41.80
2023-01-02T03:49:31.205Z,41.80
2023-01-02T03:54:51.236Z,41.80
2023-01-02T04:00:11.527Z,41.70
2023-01-02T04:05:31.686Z,41.80
2023-01-02T04:10:56.223Z,41.70
2023-01-02T04:16:18.563Z,41.70
2023-01-02T04:21:38.566Z,41.70
2023-01-02T04:26:58.672Z,41.80
2023-01-02T04:32:18.757Z,41.80
2023-01-02T04:37:38.974Z,41.80
2023-01-02T04:42:59.115Z,41.80
2023-01-02T04:48:19.293Z,41.80
2023-01-02T04:53:39.316Z,41.80
2023-01-02T04:58:59.501Z,41.80
2023-01-02T05:04:20.075Z,41.80
2023-01-02T05:09:40.361Z,41.70
2023-01-02T05:15:00.542Z,41.70
2023-01-02T05:20:20.705Z,41.60
2023-01-02T05:25:40.872Z,41.60
2023-01-02T05:31:01.057Z,41.50
2023-01-02T05:36:21.162Z,41.60
2023-01-02T05:41:41.347Z,41.60
2023-01-02T05:47:01.345Z,41.60
2023-01-02T05:52:21.511Z,41.50
2023-01-02T05:57:41.710Z,41.60
2023-01-02T06:03:02.048Z,41.60
2023-01-02T06:08:22.106Z,41.60
2023-01-02T06:13:42.315Z,41.70
2023-01-02T06:19:02.428Z,41.70
2023-01-02T06:24:22.596Z,41.60
2023-01-02T06:29:42.610Z,41.70
2023-01-02T06:35:02.894Z,41.70
2023-01-02T06:40:22.865Z,41.70
2023-01-02T06:45:43.736Z,41.70
2023-01-02T06:51:03.784Z,41.70
2023-01-02T06:56:24.159Z,41.80
2023-01-02T07:01:44.535Z,41.70
2023-01-02T07:07:04.933Z,41.70
2023-01-02T07:12:25.081Z,41.70
2023-01-02T07:17:45.247Z,41.70
2023-01-02T07:23:05.330Z,41.70
2023-01-02T07:28:25.629Z,41.60
2023-01-02T07:33:45.745Z,41.60
2023-01-02T07:39:06.007Z,41.60
2023-01-02T07:44:26.092Z,41.60
2023-01-02T07:49:46.375Z,41.60
2023-01-02T07:55:06.348Z,41.60
2023-01-02T08:00:26.423Z,41.70
2023-01-02T08:05:46.610Z,41.60
2023-01-02T08:11:06.731Z,41.60
2023-01-02T08:16:26.867Z,41.70
2023-01-02T08:21:46.847Z,41.70
2023-01-02T08:27:06.864Z,41.80
2023-01-02T08:32:26.991Z,41.80
2023-01-02T08:37:50.637Z,41.70
2023-01-02T08:43:10.691Z,41.80
2023-01-02T08:48:30.840Z,41.80
2023-01-02T08:53:51.113Z,41.80
2023-01-02T08:59:11.201Z,41.80
2023-01-02T09:04:31.400Z,41.70
2023-01-02T09:09:51.514Z,41.60
2023-01-02T09:15:11.619Z,41.70
2023-01-02T09:20:31.654Z,41.60
2023-01-02T09:25:51.736Z,41.60
2023-01-02T09:31:12.519Z,41.60
2023-01-02T09:36:33.184Z,41.60
2023-01-02T09:41:53.206Z,41.70
2023-01-02T09:47:13.417Z,41.70
2023-01-02T09:52:33.551Z,41.70
2023-01-02T09:57:53.707Z,41.60
2023-01-02T10:03:13.852Z,41.70
2023-01-02T10:08:33.995Z,41.70
2023-01-02T10:19:33.758Z,41.80
2023-01-02T10:24:53.866Z,41.80
2023-01-02T10:30:13.965Z,41.80
2023-01-02T10:35:33.957Z,41.80
2023-01-02T10:40:54.109Z,41.80
2023-01-02T10:46:14.267Z,41.80
2023-01-02T10:51:34.303Z,41.80
2023-01-02T10:56:54.334Z,41.80
2023-01-02T11:02:14.750Z,41.70
2023-01-02T11:07:34.727Z,41.60
2023-01-02T11:12:54.947Z,41.50
2023-01-02T11:18:15.113Z,41.60
2023-01-02T11:23:35.433Z,41.60
2023-01-02T11:28:55.453Z,41.50
2023-01-02T11:34:15.657Z,41.60
2023-01-02T11:39:35.830Z,41.60
2023-01-02T11:44:56.036Z,41.50
2023-01-02T11:50:16.146Z,41.60
2023-01-02T11:55:36.347Z,41.60
2023-01-02T12:00:56.527Z,41.60
2023-01-02T12:06:16.691Z,41.70
2023-01-02T12:11:36.766Z,41.70
2023-01-02T12:16:57.024Z,41.70
2023-01-02T12:22:17.334Z,41.80
2023-01-02T12:27:37.430Z,41.80
2023-01-02T12:32:57.547Z,41.80
2023-01-02T12:38:22.463Z,41.80
2023-01-02T12:43:42.709Z,42.20
2023-01-02T12:49:02.872Z,43.50
2023-01-02T12:54:22.938Z,43.60
2023-01-02T12:59:43.129Z,43.70
2023-01-02T13:05:03.117Z,43.60
2023-01-02T13:10:23.208Z,43.50
2023-01-02T13:15:43.284Z,43.20
2023-01-02T13:21:03.315Z,43.00
2023-01-02T13:26:23.541Z,43.30
2023-01-02T13:31:47.979Z,43.40
2023-01-02T13:37:08.349Z,43.50
2023-01-02T13:42:28.596Z,43.60
2023-01-02T13:47:48.937Z,43.70
2023-01-02T13:53:08.733Z,43.70
2023-01-02T13:58:28.914Z,43.60
2023-01-02T14:03:49.072Z,43.60
2023-01-02T14:09:09.220Z,43.30
2023-01-02T14:14:29.394Z,43.20
2023-01-02T14:19:49.417Z,43.20
2023-01-02T14:25:09.511Z,43.40
2023-01-02T14:30:29.691Z,43.90
2023-01-02T14:35:49.804Z,44.00
2023-01-02T14:41:09.865Z,44.00
2023-01-02T14:46:30.054Z,43.80
2023-01-02T14:51:50.090Z,43.80
2023-01-02T14:57:10.160Z,43.50
2023-01-02T15:02:30.333Z,43.10
2023-01-02T15:07:50.479Z,43.20
2023-01-02T15:13:10.569Z,43.40
2023-01-02T15:18:30.754Z,43.20
2023-01-02T15:23:50.966Z,43.00
2023-01-02T15:29:11.113Z,42.80
2023-01-02T15:34:31.324Z,42.70
2023-01-02T15:39:51.529Z,42.70
2023-01-02T15:45:11.699Z,42.70
2023-01-02T15:50:31.827Z,42.80
2023-01-02T15:55:51.900Z,42.80
2023-01-02T16:01:13.208Z,42.90
2023-01-02T16:06:33.580Z,43.00
2023-01-02T16:11:53.855Z,43.10
2023-01-02T16:17:14.021Z,43.20
2023-01-02T16:22:34.230Z,43.20
2023-01-02T16:27:54.355Z,43.30
2023-01-02T16:33:14.613Z,43.20
2023-01-02T16:38:34.676Z,43.30
2023-01-02T16:43:54.808Z,43.40
2023-01-02T16:49:14.933Z,43.40
2023-01-02T16:54:35.029Z,43.40
2023-01-02T16:59:55.209Z,43.40
2023-01-02T17:05:15.370Z,43.40
2023-01-02T17:10:35.478Z,43.40
2023-01-02T17:15:55.515Z,43.40
2023-01-02T17:21:15.633Z,43.40
2023-01-02T17:26:35.930Z,43.40
2023-01-02T17:31:55.996Z,43.40
2023-01-02T17:37:16.165Z,43.40
2023-01-02T17:42:36.280Z,43.40
2023-01-02T17:48:04.169Z,43.70
2023-01-02T17:53:27.913Z,43.60
2023-01-02T17:58:47.982Z,43.50
2023-01-02T18:04:08.186Z,43.40
2023-01-02T18:09:28.275Z,43.50
2023-01-02T18:14:48.684Z,43.40
2023-01-02T18:20:08.798Z,43.50
2023-01-02T18:25:29.236Z,43.40
2023-01-02T18:30:49.361Z,43.40
2023-01-02T18:36:09.555Z,43.40
2023-01-02T18:41:29.588Z,43.30
2023-01-02T18:47:04.068Z,43.40
2023-01-02T18:52:24.868Z,43.40
2023-01-02T18:57:45.005Z,43.30
2023-01-02T19:03:05.193Z,43.30
2023-01-02T19:08:25.302Z,43.40
2023-01-02T19:13:45.351Z,43.30
2023-01-02T19:19:05.529Z,43.30
2023-01-02T19:24:25.720Z,43.30
2023-01-02T19:29:45.819Z,43.30
2023-01-02T19:35:06.043Z,43.30
2023-01-02T19:40:26.262Z,43.20
2023-01-02T19:45:46.482Z,43.60
2023-01-02T19:51:06.563Z,43.40
2023-01-02T19:56:26.488Z,43.30
2023-01-02T20:01:46.885Z,43.20
2023-01-02T20:07:06.822Z,43.20
2023-01-02T20:12:26.933Z,43.20
2023-01-02T20:17:46.943Z,43.20
2023-01-02T20:23:07.104Z,43.20
2023-01-02T20:28:27.222Z,43.20
2023-01-02T20:33:47.413Z,43.20
2023-01-02T20:39:07.460Z,43.20
2023-01-02T20:44:27.630Z,43.10
2023-01-02T20:49:47.777Z,43.10
2023-01-02T20:55:07.972Z,43.10
2023-01-02T21:00:28.196Z,43.10
2023-01-02T21:05:48.213Z,43.10
2023-01-02T21:11:08.386Z,43.10
2023-01-02T21:16:28.634Z,43.10
2023-01-02T21:21:48.892Z,43.10
2023-01-02T21:27:13.172Z,43.10
2023-01-02T21:32:33.709Z,43.00
2023-01-02T21:37:53.884Z,43.00
2023-01-02T21:43:14.045Z,43.00
2023-01-02T21:48:34.296Z,42.90
2023-01-02T21:53:54.493Z,43.00
2023-01-02T21:59:14.558Z,43.00
2023-01-02T22:04:34.665Z,43.00
2023-01-02T22:09:55.047Z,43.00
2023-01-02T22:15:15.177Z,43.00
2023-01-02T22:20:35.457Z,43.00
2023-01-02T22:25:55.469Z,43.00
2023-01-02T22:31:15.714Z,43.00
2023-01-02T22:36:35.735Z,43.00
2023-01-02T22:41:55.992Z,43.00
2023-01-02T22:47:16.169Z,43.00
2023-01-02T22:52:36.261Z,42.90
2023-01-02T22:57:56.361Z,42.90
2023-01-02T23:03:16.640Z,42.90
2023-01-02T23:08:36.825Z,42.80
2023-01-02T23:13:57.223Z,42.80
2023-01-02T23:19:17.195Z,42.80
2023-01-02T23:24:37.460Z,42.80
2023-01-02T23:29:57.467Z,42.80
2023-01-02T23:35:17.751Z,42.80
2023-01-02T23:40:39.873Z,42.80
2023-01-02T23:46:00.196Z,42.90
2023-01-02T23:51:20.175Z,42.90
2023-01-02T23:56:40.516Z,42.90
